This is the latest recevied weather packets stored in our database for station/object K7BYI-WX. If no packets are shown the sender has not sent any weather packets the latest 10 day(s).
| Time | Temp. | Humidity | Pressure | Rain* | Wind** | Luminosity | Snow |
|---|---|---|---|---|---|---|---|
| 1777986185 | 4.44° C | 55% | 1006 hPa | 0 mm | - | - | - |
| 1777957353 | 11.67° C | 47% | 1003 hPa | 0 mm | - | - | - |
| 1777939351 | 19.44° C | 27% | 999.6 hPa | 0 mm | - | - | - |
| 1777933951 | 22.22° C | 24% | 999.2 hPa | 0 mm | - | - | - |
| 1777929450 | 21.11° C | 24% | 1000 hPa | 0 mm | - | - | - |
| 1777925850 | 23.33° C | 21% | 1000.5 hPa | 0 mm | - | - | - |
| 1777924950 | 23.89° C | 20% | 1000.7 hPa | 0 mm | - | - | - |
| 1777924049 | 23.89° C | 20% | 1000.9 hPa | 0 mm | - | - | - |
| 1777921349 | 22.78° C | 21% | 1001.6 hPa | 0 mm | - | - | - |
| 1777919549 | 22.22° C | 22% | 1002 hPa | 0 mm | - | - | - |
| 1777915889 | 18.89° C | 30% | 1002.5 hPa | 0 mm | - | - | - |
| 1777914989 | 17.78° C | 32% | 1002.5 hPa | 0 mm | - | - | - |
| 1777912288 | 15.56° C | 37% | 1002.8 hPa | 0 mm | - | - | - |
| 1777911388 | 15.56° C | 37% | 1002.9 hPa | 0 mm | - | - | - |
| 1777910488 | 14.44° C | 40% | 1002.9 hPa | 0 mm | - | - | - |
| 1777909588 | 13.33° C | 43% | 1003.1 hPa | 0 mm | - | - | - |
| 1777907788 | 12.22° C | 47% | 1003.4 hPa | 0 mm | - | - | - |
| 1777906888 | 11.67° C | 48% | 1003.4 hPa | 0 mm | - | - | - |
| 1777905988 | 11.11° C | 50% | 1003.6 hPa | 0 mm | - | - | - |
| 1777905088 | 10.56° C | 51% | 1003.6 hPa | 0 mm | - | - | - |
| 1777904188 | 8.89° C | 56% | 1003.6 hPa | 0 mm | - | - | - |
| 1777903287 | 8.33° C | 58% | 1003.7 hPa | 0 mm | - | - | - |
| 1777902387 | 8.33° C | 37% | 1018.5 hPa | 0 mm | - | - | - |
| 1777596890 | 14.44° C | 23% | 1017 hPa | 0 mm | - | - | - |
| 1777561757 | 5° C | 59% | 1021.5 hPa | 0 mm | - | - | - |
* Rain latest hour (hover to see other rain measurements)
** Current wind speed in m/s (hover to see current wind gust speed)